Time;durP1;ratioP1;P1;durP2;ratioP2;P2;SDS_P1;SDS_P2;PMS_P1;PMS_P2;Temp;Humidity;BMP_temperature;BMP_pressure;BME280_temperature;BME280_humidity;BME280_pressure;Samples;Min_cycle;Max_cycle;Signal;HPM_P1;HPM_P2
2021/03/23 00:01:36;;;;;;;0.50;0.50;;;;;;;5.78;59.56;100947.47;5071220;28;20198;-64
2021/03/23 00:04:05;;;;;;;1.87;0.80;;;;;;;5.69;59.49;100937.22;5070427;28;20201;-65
2021/03/23 00:06:32;;;;;;;0.63;0.53;;;;;;;5.61;59.51;100931.38;5071709;28;20628;-65
2021/03/23 00:09:03;;;;;;;0.30;0.30;;;;;;;5.71;60.46;100935.34;5061240;28;20462;-68
2021/03/23 00:11:32;;;;;;;0.50;0.50;;;;;;;5.73;60.91;100930.81;5058898;28;20217;-64
2021/03/23 00:14:02;;;;;;;3.13;0.70;;;;;;;5.80;61.12;100934.94;5071245;28;20197;-64
2021/03/23 00:16:32;;;;;;;5.10;0.50;;;;;;;5.82;60.52;100941.09;5058726;28;20197;-65
2021/03/23 00:19:00;;;;;;;0.40;0.40;;;;;;;5.28;60.45;100886.66;5061554;28;20289;-65
2021/03/23 00:21:28;;;;;;;4.00;0.80;;;;;;;5.28;60.45;100915.94;5068109;28;20285;-64
2021/03/23 00:23:56;;;;;;;0.53;0.53;;;;;;;5.49;60.46;100930.09;5072203;28;20202;-65
2021/03/23 00:26:25;;;;;;;0.70;0.60;;;;;;;5.50;60.51;100925.63;5069649;28;20252;-64
2021/03/23 00:28:54;;;;;;;1.00;0.70;;;;;;;5.39;60.67;100918.13;5062259;28;20242;-65
2021/03/23 00:31:27;;;;;;;0.57;0.47;;;;;;;5.42;60.55;100927.78;5065310;28;20218;-64
2021/03/23 00:33:57;;;;;;;2.57;0.67;;;;;;;5.30;60.70;100927.38;5058245;28;20900;-64
2021/03/23 00:36:28;;;;;;;0.50;0.50;;;;;;;5.11;61.64;100893.63;5056678;28;20202;-65
2021/03/23 00:38:56;;;;;;;0.67;0.67;;;;;;;5.28;61.84;100926.59;5071157;28;20197;-64
2021/03/23 00:41:24;;;;;;;0.40;0.40;;;;;;;5.25;61.46;100920.53;5070288;28;20673;-67
2021/03/23 00:43:52;;;;;;;3.10;0.83;;;;;;;5.19;61.64;100926.09;5064003;28;20599;-67
2021/03/23 00:46:20;;;;;;;0.73;0.50;;;;;;;5.09;61.83;100909.66;5059927;28;20225;-64
2021/03/23 00:48:47;;;;;;;0.70;0.70;;;;;;;5.07;61.50;100926.63;5069886;28;20206;-64
2021/03/23 00:51:15;;;;;;;0.60;0.60;;;;;;;4.88;61.38;100931.84;5071290;28;20270;-67
2021/03/23 00:53:42;;;;;;;2.57;0.90;;;;;;;4.75;61.65;100925.31;5069517;28;20194;-67
2021/03/23 00:56:09;;;;;;;0.60;0.60;;;;;;;4.68;61.45;100928.22;5070195;28;20193;-65
2021/03/23 00:58:37;;;;;;;1.23;0.80;;;;;;;4.68;61.41;100924.69;5070531;28;20280;-64
2021/03/23 01:01:04;;;;;;;1.67;1.10;;;;;;;4.67;61.86;100920.31;5064036;28;20190;-68
2021/03/23 01:03:32;;;;;;;0.60;0.60;;;;;;;4.61;61.34;100925.88;5062425;28;20228;-65
2021/03/23 01:05:59;;;;;;;1.60;0.77;;;;;;;4.59;62.10;100928.59;5069512;28;20236;-65
2021/03/23 01:08:26;;;;;;;1.00;0.60;;;;;;;4.56;62.30;100928.69;5070404;28;20232;-65
2021/03/23 01:10:53;;;;;;;10.03;0.80;;;;;;;4.54;62.20;100927.91;5069664;28;20242;-64
2021/03/23 01:13:21;;;;;;;1.07;0.80;;;;;;;4.47;62.35;100941.50;5071865;28;20213;-68
2021/03/23 01:15:49;;;;;;;0.60;0.60;;;;;;;4.41;62.05;100931.97;5069803;28;20284;-64
2021/03/23 01:18:16;;;;;;;4.50;0.83;;;;;;;4.37;62.41;100933.03;5067359;28;20206;-65
2021/03/23 01:20:43;;;;;;;606.00;277.87;;;;;;;4.40;62.76;100940.00;5061020;28;20193;-67
2021/03/23 01:23:11;;;;;;;72.17;30.93;;;;;;;4.38;62.99;100941.88;5071051;28;20212;-68
2021/03/23 01:25:38;;;;;;;8.90;4.90;;;;;;;4.40;63.40;100945.34;5070427;28;20614;-64
2021/03/23 01:28:05;;;;;;;3.43;1.93;;;;;;;4.41;63.69;100947.94;5070584;28;20204;-68
2021/03/23 01:30:32;;;;;;;1.23;1.10;;;;;;;4.39;63.26;100949.78;5070921;28;20216;-64
2021/03/23 01:33:00;;;;;;;1.60;1.13;;;;;;;4.29;62.67;100953.75;5057593;28;20229;-65
2021/03/23 01:35:28;;;;;;;2.23;1.10;;;;;;;4.21;63.13;100959.31;5063787;28;20551;-68
2021/03/23 01:37:55;;;;;;;3.63;2.60;;;;;;;4.03;62.94;100944.97;5051289;28;20215;-68
2021/03/23 01:40:25;;;;;;;4.03;2.63;;;;;;;4.06;64.29;100943.97;5064133;28;20200;-65
2021/03/23 01:42:55;;;;;;;4.80;1.40;;;;;;;4.11;64.51;100954.44;5055793;28;20223;-68
2021/03/23 01:45:28;;;;;;;2.20;1.13;;;;;;;4.05;64.60;100945.75;5068611;28;20630;-68
2021/03/23 01:47:57;;;;;;;1.07;0.87;;;;;;;4.04;64.18;100944.03;5070400;28;20692;-65
2021/03/23 01:50:26;;;;;;;2.47;0.70;;;;;;;3.98;64.15;100948.69;5065170;28;20688;-64
2021/03/23 01:53:00;;;;;;;9.97;8.73;;;;;;;3.96;65.05;100945.22;5061313;28;20540;-64
2021/03/23 01:55:29;;;;;;;4.73;2.23;;;;;;;3.99;65.47;100950.44;5069429;28;20212;-65
2021/03/23 01:57:56;;;;;;;2.00;1.90;;;;;;;3.99;65.29;100951.31;5060673;28;20243;-68
2021/03/23 02:00:25;;;;;;;1.20;1.00;;;;;;;3.78;64.50;100946.78;5054306;28;20208;-65
2021/03/23 02:02:52;;;;;;;1.03;0.70;;;;;;;3.65;64.10;100954.31;5067316;28;20201;-65
2021/03/23 02:05:27;;;;;;;1.70;0.83;;;;;;;3.62;64.87;100961.53;5061864;28;20215;-68
2021/03/23 02:07:57;;;;;;;0.70;0.63;;;;;;;3.58;65.71;100965.22;5069932;28;20202;-68
2021/03/23 02:10:25;;;;;;;0.60;0.60;;;;;;;3.46;66.23;100949.72;5070258;28;20230;-68
2021/03/23 02:12:54;;;;;;;4.27;0.70;;;;;;;3.51;66.21;100963.69;5065156;28;20211;-68
2021/03/23 02:15:23;;;;;;;0.40;0.40;;;;;;;3.16;65.20;100955.19;5070133;28;20201;-68
2021/03/23 02:18:11;;;;;;;0.60;0.60;;;;;;;3.21;66.15;100963.84;5069222;28;20247;-68
2021/03/23 02:20:59;;;;;;;0.93;0.70;;;;;;;3.19;66.19;100956.84;5060197;28;20253;-69
2021/03/23 02:23:29;;;;;;;0.50;0.43;;;;;;;3.00;65.78;100959.25;5068251;28;20237;-68
2021/03/23 02:25:57;;;;;;;0.50;0.50;;;;;;;2.98;65.90;100958.44;5059349;28;20316;-68
2021/03/23 02:28:24;;;;;;;0.70;0.70;;;;;;;2.89;65.52;100964.03;5065672;28;20236;-68
2021/03/23 02:30:53;;;;;;;1.57;0.60;;;;;;;2.86;65.87;100966.81;5070365;28;20613;-68
2021/03/23 02:33:20;;;;;;;0.53;0.53;;;;;;;2.86;67.00;100964.16;5067416;28;20216;-69
2021/03/23 02:35:49;;;;;;;3.77;0.80;;;;;;;2.86;67.09;100965.00;5050523;28;20209;-69
2021/03/23 02:38:16;;;;;;;1.03;0.60;;;;;;;2.81;66.59;100961.66;5049993;28;20213;-69
2021/03/23 02:40:44;;;;;;;0.90;0.70;;;;;;;2.79;66.92;100974.09;5070461;28;20685;-69
2021/03/23 02:43:12;;;;;;;2.10;0.77;;;;;;;2.59;66.71;100945.56;5069690;28;20275;-69
2021/03/23 02:45:44;;;;;;;0.53;0.53;;;;;;;2.68;66.40;100971.75;5069978;28;20663;-65
2021/03/23 02:48:12;;;;;;;0.50;0.50;;;;;;;2.63;66.45;100981.66;5069011;28;20329;-66
2021/03/23 02:50:39;;;;;;;0.40;0.40;;;;;;;2.59;66.83;100985.31;5058852;28;20232;-65
2021/03/23 02:53:07;;;;;;;1.17;0.67;;;;;;;2.54;66.58;100989.91;5061282;28;20279;-66
2021/03/23 02:55:34;;;;;;;0.77;0.50;;;;;;;2.49;67.11;100992.69;5068531;28;20258;-65
2021/03/23 02:58:01;;;;;;;3.70;0.43;;;;;;;2.50;67.30;100990.91;5066220;28;20700;-65
2021/03/23 03:00:29;;;;;;;1.67;0.63;;;;;;;2.28;67.46;100964.19;5053089;28;20233;-65
2021/03/23 03:02:56;;;;;;;2.87;0.70;;;;;;;2.33;67.02;100990.53;5049286;28;20697;-66
2021/03/23 03:05:23;;;;;;;0.50;0.50;;;;;;;2.28;67.10;100992.47;5052331;28;20786;-65
2021/03/23 03:07:50;;;;;;;0.77;0.50;;;;;;;2.29;67.36;101010.09;5067891;28;20205;-65
2021/03/23 03:10:19;;;;;;;0.60;0.60;;;;;;;2.29;67.68;101005.66;5061821;28;20219;-65
2021/03/23 03:12:46;;;;;;;1.60;0.63;;;;;;;2.28;67.64;101014.53;5068369;28;20196;-65
2021/03/23 03:15:14;;;;;;;0.40;0.40;;;;;;;2.21;67.36;101012.97;5061357;28;20337;-66
2021/03/23 03:17:41;;;;;;;79.33;51.43;;;;;;;2.18;67.10;101013.06;5058819;28;20691;-66
2021/03/23 03:20:10;;;;;;;19.63;14.07;;;;;;;2.06;67.43;101014.25;5064791;28;20673;-65
2021/03/23 03:22:37;;;;;;;2.53;0.63;;;;;;;2.02;66.87;101023.22;5060527;28;20287;-65
2021/03/23 03:25:07;;;;;;;0.87;0.87;;;;;;;1.93;67.29;101020.84;5063295;28;20215;-66
2021/03/23 03:27:35;;;;;;;0.80;0.77;;;;;;;1.92;67.19;101019.09;5066486;28;20200;-65
2021/03/23 03:30:06;;;;;;;1.13;1.13;;;;;;;1.91;67.15;101024.44;5069008;28;20230;-66
2021/03/23 03:32:33;;;;;;;1.53;1.30;;;;;;;1.92;67.19;101026.16;5065258;28;20224;-66
2021/03/23 03:35:01;;;;;;;1.27;1.00;;;;;;;1.97;67.73;101018.97;5059215;28;20208;-65
2021/03/23 03:37:28;;;;;;;0.57;0.57;;;;;;;2.03;68.17;101024.09;5064931;28;20301;-66
2021/03/23 03:39:56;;;;;;;0.87;0.87;;;;;;;1.99;67.58;101023.31;5067029;28;20203;-65
2021/03/23 03:42:23;;;;;;;0.50;0.50;;;;;;;2.03;67.71;101027.59;5062386;28;20200;-65
2021/03/23 03:44:51;;;;;;;1.40;1.03;;;;;;;1.81;67.04;101008.78;5071869;28;20287;-66
2021/03/23 03:47:18;;;;;;;35.20;16.20;;;;;;;1.92;67.80;101029.69;5071304;28;20196;-65
2021/03/23 03:49:45;;;;;;;3.77;2.60;;;;;;;1.93;67.66;101034.06;5071648;28;20658;-65
2021/03/23 03:52:12;;;;;;;1.80;1.40;;;;;;;1.91;67.58;101029.72;5057613;28;20307;-65
2021/03/23 03:54:39;;;;;;;2.00;1.57;;;;;;;1.89;67.67;101036.84;5058782;28;20675;-65
2021/03/23 03:57:07;;;;;;;11.60;5.37;;;;;;;1.88;67.59;101040.41;5059552;28;20283;-65
2021/03/23 03:59:34;;;;;;;2.43;2.13;;;;;;;1.91;68.29;101042.97;5056694;28;20228;-65
2021/03/23 04:02:03;;;;;;;6.27;2.77;;;;;;;1.95;68.08;101042.84;5065863;28;20248;-66
2021/03/23 04:04:30;;;;;;;0.60;0.60;;;;;;;1.96;67.97;101052.53;5067036;28;20203;-65
2021/03/23 04:06:57;;;;;;;0.53;0.50;;;;;;;1.92;67.65;101048.22;5065351;28;20211;-65
2021/03/23 04:09:24;;;;;;;0.30;0.30;;;;;;;1.89;68.18;101058.03;5064589;28;20207;-65
2021/03/23 04:11:51;;;;;;;0.40;0.40;;;;;;;1.79;68.06;101036.22;5065294;28;20320;-65
2021/03/23 04:14:18;;;;;;;0.50;0.50;;;;;;;1.78;67.83;101050.34;5069785;28;20204;-65
2021/03/23 04:16:46;;;;;;;0.50;0.50;;;;;;;1.73;67.85;101046.97;5103763;28;20287;-65
2021/03/23 04:19:14;;;;;;;0.57;0.50;;;;;;;1.67;68.02;101047.13;5068162;28;20777;-69
2021/03/23 04:21:41;;;;;;;0.57;0.40;;;;;;;1.62;68.27;101049.03;5069800;28;20196;-69
2021/03/23 04:24:09;;;;;;;0.40;0.40;;;;;;;1.55;68.11;101037.75;5071494;28;20199;-65
2021/03/23 04:26:36;;;;;;;0.50;0.50;;;;;;;1.51;68.42;101042.22;5070568;28;20211;-69
2021/03/23 04:29:03;;;;;;;0.50;0.50;;;;;;;1.48;68.37;101042.31;5068912;28;20327;-69
2021/03/23 04:31:36;;;;;;;0.63;0.30;;;;;;;1.42;68.16;101041.59;5082664;28;20215;-68
2021/03/23 04:34:05;;;;;;;0.50;0.50;;;;;;;1.41;68.24;101047.81;5070880;28;20199;-64
2021/03/23 04:36:34;;;;;;;1.53;0.60;;;;;;;1.40;68.53;101036.34;5073874;28;20298;-68
2021/03/23 04:39:01;;;;;;;0.97;0.33;;;;;;;1.31;67.96;101039.25;5071817;28;20204;-64
2021/03/23 04:41:28;;;;;;;0.47;0.47;;;;;;;1.14;68.40;101007.91;5071245;28;20374;-68
2021/03/23 04:43:56;;;;;;;0.80;0.47;;;;;;;1.10;68.67;101002.75;5070859;28;20359;-68
2021/03/23 04:46:26;;;;;;;1.97;0.70;;;;;;;1.35;68.84;101035.59;5071431;28;20209;-64
2021/03/23 04:48:54;;;;;;;0.53;0.40;;;;;;;1.36;68.75;101037.34;5069530;28;20203;-64
2021/03/23 04:51:24;;;;;;;0.40;0.40;;;;;;;1.31;68.69;101026.00;5071333;28;20266;-68
2021/03/23 04:53:58;;;;;;;0.70;0.70;;;;;;;1.13;68.72;101026.47;5066580;28;20203;-69
2021/03/23 04:56:27;;;;;;;5.93;0.60;;;;;;;1.16;68.64;101034.31;5061458;28;20211;-69
2021/03/23 04:58:54;;;;;;;0.30;0.30;;;;;;;1.15;68.78;101037.88;5067955;28;20611;-69
2021/03/23 05:01:22;;;;;;;0.40;0.40;;;;;;;1.17;69.34;101036.06;5070553;28;20724;-69
2021/03/23 05:03:53;;;;;;;3.23;0.60;;;;;;;1.21;69.52;101035.94;5061880;28;20607;-69
2021/03/23 05:06:21;;;;;;;1.00;0.63;;;;;;;1.27;69.67;101040.22;5069134;28;20203;-69
2021/03/23 05:08:49;;;;;;;760.63;275.67;;;;;;;1.33;69.61;101042.72;5056121;28;20678;-69
2021/03/23 05:11:20;;;;;;;76.37;25.40;;;;;;;1.42;69.49;101047.75;5064551;28;20290;-72
2021/03/23 05:13:48;;;;;;;7.80;2.47;;;;;;;1.51;69.95;101050.16;5067695;28;20204;-69
2021/03/23 05:16:15;;;;;;;1.00;0.90;;;;;;;1.52;69.39;101048.38;5065576;28;20194;-68
2021/03/23 05:18:43;;;;;;;1.00;1.00;;;;;;;1.47;69.66;101051.16;5069310;28;20201;-69
2021/03/23 05:21:10;;;;;;;4.00;0.80;;;;;;;1.50;70.03;101043.13;5069006;28;20478;-69
2021/03/23 05:23:38;;;;;;;0.40;0.40;;;;;;;1.58;69.51;101050.91;5068168;28;20203;-70
2021/03/23 05:26:06;;;;;;;1.87;1.27;;;;;;;1.71;68.73;101054.09;5068316;28;20199;-69
2021/03/23 05:28:34;;;;;;;1.70;1.50;;;;;;;1.89;69.17;101055.38;5067688;28;20310;-69
2021/03/23 05:31:02;;;;;;;1.63;0.87;;;;;;;2.02;69.17;101060.28;5060357;28;20225;-69
2021/03/23 05:33:30;;;;;;;0.90;0.87;;;;;;;2.12;68.96;101059.13;5062202;28;20199;-68
2021/03/23 05:35:59;;;;;;;0.77;0.77;;;;;;;2.18;68.61;101066.91;5061401;28;20199;-68
2021/03/23 05:38:27;;;;;;;1.50;0.70;;;;;;;2.33;67.92;101064.72;5054214;28;20699;-68
2021/03/23 05:41:00;;;;;;;1.23;0.63;;;;;;;2.43;67.77;101061.75;5053442;28;20559;-68
2021/03/23 05:43:58;;;;;;;1.50;1.17;;;;;;;2.32;68.79;101070.94;5052618;28;20223;-68
2021/03/23 05:46:31;;;;;;;3.77;1.00;;;;;;;2.35;68.00;101070.84;5053763;28;20205;-68
2021/03/23 05:49:07;;;;;;;2.23;0.90;;;;;;;2.55;68.32;101073.81;5054158;28;20196;-68
2021/03/23 05:51:41;;;;;;;3.10;1.00;;;;;;;2.64;68.07;101073.50;5063551;28;20750;-68
2021/03/23 05:54:19;;;;;;;2.00;0.80;;;;;;;2.80;67.61;101071.28;5052368;28;20192;-68
2021/03/23 05:56:50;;;;;;;0.40;0.40;;;;;;;2.99;67.31;101071.56;5047897;28;20217;-68
2021/03/23 05:59:32;;;;;;;0.83;0.70;;;;;;;3.12;67.29;101083.53;5052072;28;20320;-68
2021/03/23 06:02:05;;;;;;;1.37;0.70;;;;;;;3.19;67.38;101094.81;5050161;28;20214;-68
2021/03/23 06:04:44;;;;;;;1.47;0.90;;;;;;;3.19;66.99;101094.81;5058253;28;20260;-68
2021/03/23 06:07:15;;;;;;;2.10;1.10;;;;;;;2.96;67.67;101050.44;5051427;28;20196;-69
2021/03/23 06:09:43;;;;;;;2.33;0.73;;;;;;;3.21;67.38;101093.00;5050762;28;20272;-69
2021/03/23 06:12:20;;;;;;;4.87;1.50;;;;;;;3.38;68.20;101091.53;5072873;28;20248;-68
2021/03/23 06:14:58;;;;;;;1.90;1.13;;;;;;;3.45;67.97;101102.81;5068190;28;20637;-68
2021/03/23 06:17:48;;;;;;;1.30;1.07;;;;;;;3.57;67.47;101090.91;5068468;28;20193;-69
2021/03/23 06:20:28;;;;;;;0.90;0.90;;;;;;;3.61;68.02;101081.94;5067119;28;20212;-68
2021/03/23 06:23:24;;;;;;;3.73;0.80;;;;;;;3.83;68.18;101082.94;5067982;28;20200;-69
2021/03/23 06:26:00;;;;;;;3.17;0.97;;;;;;;4.24;68.06;101100.06;5060672;28;20660;-69
2021/03/23 06:28:41;;;;;;;0.60;0.60;;;;;;;4.52;67.96;101112.38;5060898;28;20315;-69
2021/03/23 06:31:30;;;;;;;1.23;0.70;;;;;;;4.76;67.75;101114.13;5054317;28;20215;-69
2021/03/23 06:33:58;;;;;;;0.70;0.70;;;;;;;4.95;67.61;101108.97;5058834;28;20197;-69
2021/03/23 06:36:28;;;;;;;0.50;0.50;;;;;;;4.91;67.41;101086.06;5050428;28;20198;-69
2021/03/23 06:38:56;;;;;;;0.73;0.50;;;;;;;5.36;66.89;101120.63;5063157;28;20250;-69
2021/03/23 06:41:26;;;;;;;0.77;0.77;;;;;;;5.69;66.50;101107.75;5067886;28;20272;-69
2021/03/23 06:43:55;;;;;;;1.60;0.60;;;;;;;6.04;66.13;101111.59;5060660;28;20197;-69
2021/03/23 06:46:27;;;;;;;1.03;0.70;;;;;;;6.33;65.12;101110.31;5057597;28;20218;-69
2021/03/23 06:49:18;;;;;;;0.63;0.63;;;;;;;6.57;62.98;101121.72;5066667;28;20565;-68
2021/03/23 06:52:03;;;;;;;2.30;0.93;;;;;;;6.81;64.22;101119.72;5056342;28;20707;-68
2021/03/23 06:54:32;;;;;;;3.00;0.50;;;;;;;7.18;63.45;101132.22;5058725;28;20206;-68
2021/03/23 06:57:02;;;;;;;2.47;0.70;;;;;;;7.51;63.45;101128.88;5061068;28;20246;-68
2021/03/23 06:59:31;;;;;;;0.87;0.50;;;;;;;7.70;61.90;101114.53;5059039;28;20203;-68
2021/03/23 07:02:03;;;;;;;0.97;0.73;;;;;;;8.04;62.19;101123.50;5053979;28;20661;-68
2021/03/23 07:04:35;;;;;;;1.30;0.63;;;;;;;8.22;61.86;101106.50;5060326;28;20204;-68
2021/03/23 07:07:22;;;;;;;1.03;0.90;;;;;;;8.49;61.59;101092.66;5068778;28;20199;-68
2021/03/23 07:09:52;;;;;;;2.27;0.90;;;;;;;8.92;60.50;101121.53;5070336;28;20217;-68
2021/03/23 07:12:20;;;;;;;0.80;0.80;;;;;;;9.18;60.40;101117.38;5061712;28;20688;-68
2021/03/23 07:14:49;;;;;;;1.40;0.90;;;;;;;9.42;60.08;101120.50;5068468;28;20693;-68
2021/03/23 07:17:26;;;;;;;0.70;0.70;;;;;;;9.70;59.27;101118.91;5061552;28;20204;-70
2021/03/23 07:19:58;;;;;;;1.93;0.80;;;;;;;9.94;58.68;101120.16;5062837;28;20209;-68
2021/03/23 07:22:34;;;;;;;0.90;0.80;;;;;;;10.21;57.20;101123.06;5064370;28;20274;-68
2021/03/23 07:25:04;;;;;;;0.70;0.70;;;;;;;10.43;56.92;101128.00;5063041;28;20209;-68
2021/03/23 07:27:31;;;;;;;1.10;0.80;;;;;;;10.62;55.92;101125.03;5066415;28;20254;-68
2021/03/23 07:30:27;;;;;;;1.00;0.90;;;;;;;10.84;54.60;101125.44;5063806;28;20779;-68
2021/03/23 07:32:59;;;;;;;0.80;0.80;;;;;;;11.01;53.92;101121.66;5067148;28;20248;-68
2021/03/23 07:35:32;;;;;;;0.90;0.90;;;;;;;11.15;53.55;101119.84;5061701;28;20199;-68
2021/03/23 07:38:04;;;;;;;0.80;0.80;;;;;;;11.25;53.30;101117.41;5056502;28;20676;-68
2021/03/23 07:40:37;;;;;;;0.83;0.83;;;;;;;11.33;52.30;101115.09;5066854;28;20201;-68
2021/03/23 07:43:21;;;;;;;1.90;0.90;;;;;;;11.53;51.10;101129.91;5057243;28;20664;-68
2021/03/23 07:45:57;;;;;;;2.33;1.10;;;;;;;11.60;52.41;101128.53;5051845;28;20247;-68
2021/03/23 07:48:33;;;;;;;1.70;1.20;;;;;;;11.75;52.67;101126.69;5058297;28;20263;-66
2021/03/23 07:51:10;;;;;;;2.93;1.27;;;;;;;11.87;52.19;101128.56;5059319;28;20265;-66
2021/03/23 07:53:40;;;;;;;1.40;1.30;;;;;;;11.81;52.16;101112.84;5057639;28;20223;-66
2021/03/23 07:56:21;;;;;;;3.07;1.50;;;;;;;11.90;51.75;101122.13;5055861;28;20637;-67
2021/03/23 07:58:58;;;;;;;7.03;1.60;;;;;;;11.94;51.05;101116.47;5054853;28;20311;-64
2021/03/23 08:01:42;;;;;;;3.10;1.40;;;;;;;11.80;49.43;101120.06;5051511;28;20227;-66
2021/03/23 08:04:15;;;;;;;2.10;1.33;;;;;;;11.97;49.19;101115.38;5054234;28;20195;-66
2021/03/23 08:07:11;;;;;;;1.53;1.23;;;;;;;11.57;49.14;101088.41;5070491;28;20197;-67
2021/03/23 08:10:13;;;;;;;5.93;1.33;;;;;;;11.94;50.12;101129.03;5063833;28;20682;-67
2021/03/23 08:12:50;;;;;;;1.80;1.47;;;;;;;11.95;49.93;101134.34;5070139;28;21013;-67
2021/03/23 08:15:35;;;;;;;3.83;1.70;;;;;;;11.87;50.18;101136.66;5062125;28;20193;-64
2021/03/23 08:18:19;;;;;;;5.67;1.70;;;;;;;11.97;50.67;101142.31;5061858;28;20197;-67
2021/03/23 08:21:13;;;;;;;3.30;1.27;;;;;;;12.04;50.93;101149.00;5056994;28;20189;-67
2021/03/23 08:23:55;;;;;;;3.27;2.70;;;;;;;11.91;50.49;101138.16;5060545;28;20208;-67
2021/03/23 08:26:33;;;;;;;1265.77;493.07;;;;;;;11.94;50.23;101132.59;5058899;28;20201;-68
2021/03/23 08:29:08;;;;;;;283.80;127.63;;;;;;;11.94;51.32;101143.38;5057956;28;20689;-67
2021/03/23 08:31:48;;;;;;;224.80;163.70;;;;;;;12.04;50.89;101132.84;5068627;28;20241;-67
2021/03/23 08:34:37;;;;;;;30.13;19.97;;;;;;;11.96;50.42;101135.19;5068181;28;20234;-67
2021/03/23 08:37:49;;;;;;;10.70;4.93;;;;;;;11.84;48.72;101134.16;5054071;28;20724;-67
2021/03/23 08:40:26;;;;;;;67.70;18.07;;;;;;;11.85;51.04;101143.97;5034248;28;20289;-67
2021/03/23 08:42:54;;;;;;;12.90;4.23;;;;;;;11.58;50.33;101143.06;5055359;28;20190;-68
2021/03/23 08:45:24;;;;;;;5.60;3.00;;;;;;;11.65;50.66;101157.88;5066722;28;20747;-67
2021/03/23 08:47:59;;;;;;;5.47;2.10;;;;;;;11.73;50.81;101166.28;5068173;28;20577;-68
2021/03/23 08:50:30;;;;;;;9.27;2.43;;;;;;;11.61;50.70;101156.31;5061919;28;20292;-67
2021/03/23 08:53:00;;;;;;;4.47;1.90;;;;;;;11.50;50.17;101157.03;5066939;28;20299;-66
2021/03/23 08:55:45;;;;;;;4.87;1.90;;;;;;;11.55;50.93;101140.56;5053104;28;20686;-67
2021/03/23 08:58:15;;;;;;;2.40;1.30;;;;;;;11.58;50.65;101148.44;5060834;28;20208;-68
2021/03/23 09:00:55;;;;;;;2.80;1.50;;;;;;;11.62;49.42;101145.44;5055909;28;20203;-68
2021/03/23 09:03:42;;;;;;;3.03;1.70;;;;;;;11.48;50.14;101145.50;5059936;28;20630;-67
2021/03/23 09:06:12;;;;;;;7.47;1.40;;;;;;;11.53;50.14;101154.13;5058378;28;20207;-68
2021/03/23 09:08:46;;;;;;;2.37;1.40;;;;;;;11.49;50.37;101142.72;5058176;28;20220;-68
2021/03/23 09:11:18;;;;;;;2.07;1.13;;;;;;;11.49;50.10;101145.41;5051122;28;20767;-67
2021/03/23 09:14:23;;;;;;;3.90;1.10;;;;;;;11.50;50.95;101146.25;5055130;28;20221;-68
2021/03/23 09:17:20;;;;;;;2.50;0.93;;;;;;;11.46;50.32;101150.97;5052073;28;20419;-67
2021/03/23 09:19:54;;;;;;;4.97;1.20;;;;;;;11.41;50.46;101145.03;5054324;28;20205;-68
2021/03/23 09:22:33;;;;;;;1.20;1.10;;;;;;;11.37;49.70;101153.41;5051288;28;20687;-67
2021/03/23 09:25:47;;;;;;;2.67;1.30;;;;;;;11.24;50.29;101115.69;5050863;28;20640;-67
2021/03/23 09:28:44;;;;;;;1.10;1.00;;;;;;;11.56;50.04;101142.31;5057691;28;20317;-67
2021/03/23 09:31:14;;;;;;;6.20;1.40;;;;;;;11.59;50.20;101142.09;5046940;28;20265;-67
2021/03/23 09:33:43;;;;;;;2.40;1.40;;;;;;;11.60;50.72;101142.00;5059275;28;20255;-67
2021/03/23 09:36:36;;;;;;;1.60;1.10;;;;;;;11.71;50.36;101144.88;5064101;28;20194;-67
2021/03/23 09:39:44;;;;;;;5.10;1.47;;;;;;;11.77;50.26;101135.53;5055151;28;20205;-68
2021/03/23 09:42:38;;;;;;;2.33;1.20;;;;;;;11.88;50.11;101135.69;5062695;28;20201;-67
2021/03/23 09:45:27;;;;;;;3.67;1.53;;;;;;;11.76;49.48;101129.28;5041708;28;20209;-67
2021/03/23 09:47:59;;;;;;;1.70;1.20;;;;;;;11.88;49.95;101130.31;5055619;28;20200;-68
2021/03/23 09:50:57;;;;;;;3.37;1.40;;;;;;;11.90;49.85;101131.06;5056840;28;20288;-67
2021/03/23 09:53:34;;;;;;;1.77;0.93;;;;;;;11.96;50.12;101143.28;5055830;28;20922;-67
2021/03/23 09:56:07;;;;;;;7.93;1.20;;;;;;;12.04;49.83;101133.72;5055039;28;20202;-68
2021/03/23 09:58:37;;;;;;;7.30;1.23;;;;;;;12.04;49.63;101139.09;5056124;28;20205;-67
2021/03/23 10:01:16;;;;;;;1.67;1.10;;;;;;;12.15;49.57;101134.78;5054010;28;20192;-68
2021/03/23 10:03:45;;;;;;;5.00;1.10;;;;;;;12.16;50.13;101140.06;5069206;28;20356;-67
2021/03/23 10:06:16;;;;;;;2.67;1.10;;;;;;;12.27;49.61;101139.38;5054699;28;20191;-67
2021/03/23 10:08:59;;;;;;;8.03;1.00;;;;;;;12.31;48.82;101140.88;5056480;28;20470;-67
2021/03/23 10:11:29;;;;;;;2.37;0.90;;;;;;;12.30;49.19;101137.31;5059729;28;20680;-67
2021/03/23 10:14:00;;;;;;;2.43;1.13;;;;;;;12.33;49.70;101138.94;5060327;28;20198;-67
2021/03/23 10:16:31;;;;;;;0.57;0.57;;;;;;;12.37;48.93;101145.84;5055189;28;20212;-67
2021/03/23 10:19:01;;;;;;;0.67;0.60;;;;;;;12.25;49.66;101098.22;5053980;28;20198;-67
2021/03/23 10:21:31;;;;;;;1.07;0.73;;;;;;;12.50;49.14;101129.66;5053168;28;20228;-68
2021/03/23 10:24:02;;;;;;;0.83;0.70;;;;;;;12.62;48.69;101123.44;5053150;28;20189;-67
2021/03/23 10:26:38;;;;;;;1.67;0.90;;;;;;;12.64;48.34;101127.75;5054891;28;20660;-67
2021/03/23 10:29:16;;;;;;;0.57;0.57;;;;;;;12.59;47.53;101124.53;5056375;28;20240;-67
2021/03/23 10:31:49;;;;;;;1.60;0.70;;;;;;;12.63;48.37;101131.41;5055001;28;20241;-67
2021/03/23 10:34:20;;;;;;;2.03;0.73;;;;;;;12.67;48.71;101132.06;5055476;28;20268;-67
2021/03/23 10:36:54;;;;;;;0.57;0.57;;;;;;;12.74;48.61;101128.81;5054689;28;20206;-67
2021/03/23 10:39:49;;;;;;;0.80;0.80;;;;;;;12.98;47.28;101125.34;5056775;28;20194;-67
2021/03/23 10:42:32;;;;;;;0.60;0.60;;;;;;;12.92;47.50;101117.72;5062908;28;20491;-67
2021/03/23 10:45:24;;;;;;;0.50;0.50;;;;;;;13.02;47.81;101133.13;5058328;28;20198;-67
2021/03/23 10:48:02;;;;;;;2.13;0.50;;;;;;;13.01;47.50;101130.53;5059956;28;20198;-67
2021/03/23 10:50:31;;;;;;;0.67;0.60;;;;;;;13.06;47.27;101123.81;5060206;28;20200;-68
2021/03/23 10:53:11;;;;;;;1.83;0.90;;;;;;;13.05;47.39;101105.06;5063624;28;20217;-68
2021/03/23 10:55:41;;;;;;;0.60;0.60;;;;;;;13.26;47.21;101127.81;5060836;28;20211;-67
2021/03/23 10:58:20;;;;;;;0.63;0.63;;;;;;;13.33;47.49;101126.41;5059403;28;20202;-68
2021/03/23 11:00:50;;;;;;;0.60;0.60;;;;;;;13.48;47.58;101123.56;5058089;28;20287;-68
2021/03/23 11:03:32;;;;;;;3.10;0.80;;;;;;;13.63;47.75;101133.19;5054925;28;20678;-67
2021/03/23 11:06:02;;;;;;;0.73;0.67;;;;;;;13.68;47.34;101137.28;5056748;28;20245;-68
2021/03/23 11:08:30;;;;;;;0.50;0.50;;;;;;;13.73;47.04;101123.44;5057269;28;20674;-67
2021/03/23 11:11:00;;;;;;;1.37;0.90;;;;;;;13.99;47.29;101135.84;5055831;28;20256;-67
2021/03/23 11:13:27;;;;;;;2.67;0.70;;;;;;;14.00;47.09;101098.88;5054778;28;20210;-67
2021/03/23 11:15:57;;;;;;;0.77;0.77;;;;;;;14.29;46.79;101131.78;5064047;28;20200;-68
2021/03/23 11:18:30;;;;;;;1.67;0.90;;;;;;;14.46;46.31;101130.50;5062338;28;20208;-68
2021/03/23 11:20:58;;;;;;;2.23;0.90;;;;;;;14.46;46.38;101128.66;5068093;28;20724;-67
2021/03/23 11:23:36;;;;;;;2.33;0.80;;;;;;;14.69;46.16;101125.97;5060928;28;20205;-67
2021/03/23 11:26:05;;;;;;;1.23;0.70;;;;;;;14.83;45.99;101128.47;5061359;28;20197;-68
2021/03/23 11:28:33;;;;;;;1.37;0.80;;;;;;;14.96;45.29;101121.09;5060081;28;20281;-68
2021/03/23 11:31:02;;;;;;;0.80;0.80;;;;;;;15.22;45.57;101122.56;5070738;28;20232;-68
2021/03/23 11:33:29;;;;;;;0.93;0.80;;;;;;;15.25;45.32;101120.59;5064803;28;20225;-66
2021/03/23 11:35:57;;;;;;;0.87;0.80;;;;;;;15.40;45.36;101116.66;5070319;28;20233;-66
2021/03/23 11:38:25;;;;;;;6.80;0.70;;;;;;;15.49;45.56;101129.41;5070709;28;20203;-66
2021/03/23 11:40:54;;;;;;;0.97;0.90;;;;;;;15.53;44.95;101125.47;5068346;28;20204;-66
2021/03/23 11:43:27;;;;;;;1.63;0.80;;;;;;;15.77;45.42;101123.47;5069868;28;20700;-66
2021/03/23 11:46:01;;;;;;;1.03;0.70;;;;;;;15.90;45.11;101122.44;5055628;28;20221;-66
2021/03/23 11:48:34;;;;;;;2.30;0.80;;;;;;;16.09;44.75;101122.59;5068738;28;20681;-67
2021/03/23 11:51:02;;;;;;;1.20;0.83;;;;;;;16.19;44.75;101125.38;5064875;28;20277;-66
2021/03/23 11:53:30;;;;;;;0.67;0.67;;;;;;;16.34;43.83;101119.53;5064016;28;20231;-66
2021/03/23 11:55:58;;;;;;;0.80;0.80;;;;;;;16.34;44.13;101118.66;5070564;28;20197;-66